Terminal Aerodrome Forecast
Issued by NWS

Home | Current Version | Previous Version | Text Only | Print | Product List | Glossary On
Versions: 1 2 3 4 5 6 7 8 9 10 11 12 13 14 15 16 17 18
000
FTUS46 KSEW 260500
TAFBFI
TAF
KBFI 260527Z 2606/2706 17004KT P6SM SCT027 OVC035
     FM260800 17004KT P6SM OVC018
     FM262200 31004KT P6SM SCT020 OVC050
     FM270500 35002KT P6SM OVC100=

USA.gov is the U.S. government's official web portal to all federal, state and local government web resources and services.